Nashville, Ohio
Current Conditions -  °F | °C
As of 6:56 PM on Saturday 25 Oct 2014 (Local Time) from KBJJ Reporting Station
Clear Clear  
Wind Chill: 65°   Ceiling: Unl
Heat Index: 65°   Visibility: 10mi
Dew Point: 45°   Wind: 12mph
Humidity: 48%   Direction: 290°WNW
Pressure: 29.78"   Gusts: NA
Location:  40.6°N, 82.11°W
Report Text: KBJJ 252256Z AUTO 29010KT 10SM CLR 18/07 A2978 RMK AO2 SLP086 T01830072 TSNO
Loading
Personal Weather Stations






























Interactive Weather Map
Tropical Storm Tracking
New forecast layout! Learn more

10-Day Weather Forecast

Advertisements
Track Severe Weather on mobile